sensor_id;sensor_type;location;lat;lon;timestamp;P1;durP1;ratioP1;P2;durP2;ratioP2
13849;SDS011;6995;52.618;13.488;2022-11-15T00:01:47;83.40;;;53.83;;
13849;SDS011;6995;52.618;13.488;2022-11-15T00:04:12;75.67;;;57.20;;
13849;SDS011;6995;52.618;13.488;2022-11-15T00:06:38;84.20;;;57.27;;
13849;SDS011;6995;52.618;13.488;2022-11-15T00:09:04;74.90;;;52.73;;
13849;SDS011;6995;52.618;13.488;2022-11-15T00:11:29;80.73;;;55.10;;
13849;SDS011;6995;52.618;13.488;2022-11-15T00:13:55;71.40;;;53.57;;
13849;SDS011;6995;52.618;13.488;2022-11-15T00:16:22;76.30;;;52.23;;
13849;SDS011;6995;52.618;13.488;2022-11-15T00:18:48;80.73;;;56.13;;
13849;SDS011;6995;52.618;13.488;2022-11-15T00:21:14;81.07;;;55.77;;
13849;SDS011;6995;52.618;13.488;2022-11-15T00:23:41;79.37;;;55.57;;
13849;SDS011;6995;52.618;13.488;2022-11-15T00:26:07;75.57;;;55.57;;
13849;SDS011;6995;52.618;13.488;2022-11-15T00:28:37;77.00;;;55.73;;
13849;SDS011;6995;52.618;13.488;2022-11-15T00:31:03;79.87;;;55.67;;
13849;SDS011;6995;52.618;13.488;2022-11-15T00:33:31;81.83;;;52.93;;
13849;SDS011;6995;52.618;13.488;2022-11-15T00:36:07;82.73;;;56.83;;
13849;SDS011;6995;52.618;13.488;2022-11-15T00:38:34;79.97;;;58.27;;
13849;SDS011;6995;52.618;13.488;2022-11-15T00:41:02;83.17;;;57.60;;
13849;SDS011;6995;52.618;13.488;2022-11-15T00:43:28;76.33;;;55.07;;
13849;SDS011;6995;52.618;13.488;2022-11-15T00:45:54;81.63;;;54.57;;
13849;SDS011;6995;52.618;13.488;2022-11-15T00:48:20;75.43;;;54.90;;
13849;SDS011;6995;52.618;13.488;2022-11-15T00:50:46;77.60;;;53.60;;
13849;SDS011;6995;52.618;13.488;2022-11-15T00:53:13;78.50;;;54.13;;
13849;SDS011;6995;52.618;13.488;2022-11-15T00:55:38;78.17;;;57.30;;
13849;SDS011;6995;52.618;13.488;2022-11-15T00:58:04;80.77;;;56.07;;
13849;SDS011;6995;52.618;13.488;2022-11-15T01:00:29;84.67;;;55.97;;
13849;SDS011;6995;52.618;13.488;2022-11-15T01:02:55;79.40;;;54.83;;
13849;SDS011;6995;52.618;13.488;2022-11-15T01:05:21;79.20;;;56.83;;
13849;SDS011;6995;52.618;13.488;2022-11-15T01:07:47;86.47;;;57.77;;
13849;SDS011;6995;52.618;13.488;2022-11-15T01:10:16;85.77;;;57.20;;
13849;SDS011;6995;52.618;13.488;2022-11-15T01:12:42;79.20;;;55.37;;
13849;SDS011;6995;52.618;13.488;2022-11-15T01:15:08;83.20;;;54.67;;
13849;SDS011;6995;52.618;13.488;2022-11-15T01:17:34;73.53;;;53.60;;
13849;SDS011;6995;52.618;13.488;2022-11-15T01:19:59;75.40;;;53.80;;
13849;SDS011;6995;52.618;13.488;2022-11-15T01:22:25;84.17;;;53.43;;
13849;SDS011;6995;52.618;13.488;2022-11-15T01:24:51;76.23;;;53.17;;
13849;SDS011;6995;52.618;13.488;2022-11-15T01:27:17;78.23;;;54.60;;
13849;SDS011;6995;52.618;13.488;2022-11-15T01:29:48;74.00;;;52.87;;
13849;SDS011;6995;52.618;13.488;2022-11-15T01:32:13;75.83;;;54.57;;
13849;SDS011;6995;52.618;13.488;2022-11-15T01:34:39;72.10;;;53.50;;
13849;SDS011;6995;52.618;13.488;2022-11-15T01:37:05;76.60;;;53.07;;
13849;SDS011;6995;52.618;13.488;2022-11-15T01:39:30;80.00;;;54.37;;
13849;SDS011;6995;52.618;13.488;2022-11-15T01:41:56;75.90;;;52.63;;
13849;SDS011;6995;52.618;13.488;2022-11-15T01:47:00;74.83;;;54.40;;
13849;SDS011;6995;52.618;13.488;2022-11-15T01:49:30;79.83;;;54.23;;
13849;SDS011;6995;52.618;13.488;2022-11-15T01:51:58;79.60;;;59.33;;
13849;SDS011;6995;52.618;13.488;2022-11-15T01:54:27;78.13;;;53.53;;
13849;SDS011;6995;52.618;13.488;2022-11-15T01:56:54;78.50;;;57.07;;
13849;SDS011;6995;52.618;13.488;2022-11-15T01:59:23;78.77;;;55.07;;
13849;SDS011;6995;52.618;13.488;2022-11-15T02:01:50;75.60;;;51.47;;
13849;SDS011;6995;52.618;13.488;2022-11-15T02:04:17;69.10;;;54.77;;
13849;SDS011;6995;52.618;13.488;2022-11-15T02:06:48;75.47;;;53.83;;
13849;SDS011;6995;52.618;13.488;2022-11-15T02:09:14;81.20;;;54.77;;
13849;SDS011;6995;52.618;13.488;2022-11-15T02:11:41;75.87;;;54.17;;
13849;SDS011;6995;52.618;13.488;2022-11-15T02:14:08;77.27;;;55.23;;
13849;SDS011;6995;52.618;13.488;2022-11-15T02:16:50;79.30;;;57.80;;
13849;SDS011;6995;52.618;13.488;2022-11-15T02:33:03;73.27;;;55.33;;
13849;SDS011;6995;52.618;13.488;2022-11-15T02:38:17;75.60;;;53.87;;
13849;SDS011;6995;52.618;13.488;2022-11-15T02:40:57;70.23;;;54.83;;
13849;SDS011;6995;52.618;13.488;2022-11-15T02:43:32;74.93;;;53.17;;
13849;SDS011;6995;52.618;13.488;2022-11-15T02:49:26;65.40;;;50.67;;
13849;SDS011;6995;52.618;13.488;2022-11-15T02:51:54;72.87;;;52.23;;
13849;SDS011;6995;52.618;13.488;2022-11-15T02:54:39;73.40;;;53.50;;
13849;SDS011;6995;52.618;13.488;2022-11-15T02:57:06;66.17;;;51.30;;
13849;SDS011;6995;52.618;13.488;2022-11-15T03:08:50;67.20;;;53.50;;
13849;SDS011;6995;52.618;13.488;2022-11-15T03:15:54;75.63;;;51.87;;
13849;SDS011;6995;52.618;13.488;2022-11-15T03:18:33;74.77;;;53.13;;
13849;SDS011;6995;52.618;13.488;2022-11-15T03:21:04;64.60;;;50.30;;
13849;SDS011;6995;52.618;13.488;2022-11-15T03:23:32;64.33;;;53.47;;
13849;SDS011;6995;52.618;13.488;2022-11-15T03:26:00;69.63;;;51.83;;
13849;SDS011;6995;52.618;13.488;2022-11-15T03:28:35;66.37;;;51.43;;
13849;SDS011;6995;52.618;13.488;2022-11-15T03:31:03;71.40;;;53.13;;
13849;SDS011;6995;52.618;13.488;2022-11-15T03:33:50;70.53;;;52.90;;
13849;SDS011;6995;52.618;13.488;2022-11-15T03:36:21;65.23;;;53.27;;
13849;SDS011;6995;52.618;13.488;2022-11-15T03:38:48;65.97;;;51.40;;
13849;SDS011;6995;52.618;13.488;2022-11-15T03:41:16;73.80;;;53.50;;
13849;SDS011;6995;52.618;13.488;2022-11-15T03:43:52;73.40;;;57.10;;
13849;SDS011;6995;52.618;13.488;2022-11-15T03:46:33;77.10;;;53.17;;
13849;SDS011;6995;52.618;13.488;2022-11-15T03:49:07;68.27;;;52.97;;
13849;SDS011;6995;52.618;13.488;2022-11-15T03:51:42;70.30;;;53.50;;
13849;SDS011;6995;52.618;13.488;2022-11-15T03:54:08;61.37;;;49.43;;
13849;SDS011;6995;52.618;13.488;2022-11-15T03:56:33;65.90;;;53.33;;
13849;SDS011;6995;52.618;13.488;2022-11-15T03:58:59;72.10;;;55.70;;
13849;SDS011;6995;52.618;13.488;2022-11-15T04:01:25;69.00;;;56.03;;
13849;SDS011;6995;52.618;13.488;2022-11-15T04:03:50;72.50;;;52.10;;
13849;SDS011;6995;52.618;13.488;2022-11-15T04:06:16;69.43;;;52.93;;
13849;SDS011;6995;52.618;13.488;2022-11-15T04:08:42;68.27;;;54.87;;
13849;SDS011;6995;52.618;13.488;2022-11-15T04:11:09;69.37;;;52.60;;
13849;SDS011;6995;52.618;13.488;2022-11-15T04:13:35;74.50;;;58.13;;
13849;SDS011;6995;52.618;13.488;2022-11-15T04:16:01;69.77;;;58.40;;
13849;SDS011;6995;52.618;13.488;2022-11-15T04:18:26;70.43;;;53.70;;
13849;SDS011;6995;52.618;13.488;2022-11-15T04:20:52;80.03;;;56.13;;
13849;SDS011;6995;52.618;13.488;2022-11-15T04:23:36;70.20;;;51.23;;
13849;SDS011;6995;52.618;13.488;2022-11-15T04:26:37;68.77;;;53.30;;
13849;SDS011;6995;52.618;13.488;2022-11-15T04:29:02;78.93;;;54.30;;
13849;SDS011;6995;52.618;13.488;2022-11-15T04:31:46;69.87;;;54.73;;
13849;SDS011;6995;52.618;13.488;2022-11-15T04:34:12;77.40;;;53.77;;
13849;SDS011;6995;52.618;13.488;2022-11-15T04:36:38;74.57;;;54.60;;
13849;SDS011;6995;52.618;13.488;2022-11-15T04:39:22;75.73;;;55.40;;
13849;SDS011;6995;52.618;13.488;2022-11-15T04:41:47;76.50;;;56.00;;
13849;SDS011;6995;52.618;13.488;2022-11-15T04:44:13;69.57;;;52.63;;
13849;SDS011;6995;52.618;13.488;2022-11-15T04:46:39;67.47;;;52.63;;
13849;SDS011;6995;52.618;13.488;2022-11-15T04:49:04;67.40;;;53.93;;
13849;SDS011;6995;52.618;13.488;2022-11-15T04:51:30;67.37;;;53.07;;
13849;SDS011;6995;52.618;13.488;2022-11-15T04:53:55;67.20;;;52.70;;
13849;SDS011;6995;52.618;13.488;2022-11-15T04:56:21;67.43;;;52.43;;
13849;SDS011;6995;52.618;13.488;2022-11-15T04:58:50;67.43;;;52.97;;
13849;SDS011;6995;52.618;13.488;2022-11-15T05:01:16;74.40;;;53.53;;
13849;SDS011;6995;52.618;13.488;2022-11-15T05:03:42;62.27;;;52.70;;
13849;SDS011;6995;52.618;13.488;2022-11-15T05:06:27;65.63;;;51.90;;
13849;SDS011;6995;52.618;13.488;2022-11-15T05:08:53;64.13;;;52.37;;
13849;SDS011;6995;52.618;13.488;2022-11-15T05:11:19;74.90;;;58.73;;
13849;SDS011;6995;52.618;13.488;2022-11-15T05:13:45;84.37;;;64.43;;
13849;SDS011;6995;52.618;13.488;2022-11-15T05:16:11;92.23;;;68.13;;
13849;SDS011;6995;52.618;13.488;2022-11-15T05:18:37;73.60;;;54.80;;
13849;SDS011;6995;52.618;13.488;2022-11-15T05:21:12;65.03;;;53.00;;
13849;SDS011;6995;52.618;13.488;2022-11-15T05:23:40;74.50;;;53.47;;
13849;SDS011;6995;52.618;13.488;2022-11-15T05:26:06;72.47;;;53.23;;
13849;SDS011;6995;52.618;13.488;2022-11-15T05:28:35;69.43;;;52.40;;
13849;SDS011;6995;52.618;13.488;2022-11-15T05:31:02;67.00;;;53.33;;
13849;SDS011;6995;52.618;13.488;2022-11-15T05:33:28;65.83;;;53.13;;
13849;SDS011;6995;52.618;13.488;2022-11-15T05:35:56;64.87;;;51.50;;
13849;SDS011;6995;52.618;13.488;2022-11-15T05:38:26;67.87;;;52.37;;
13849;SDS011;6995;52.618;13.488;2022-11-15T05:40:51;65.90;;;51.33;;
13849;SDS011;6995;52.618;13.488;2022-11-15T05:43:17;67.57;;;51.37;;
13849;SDS011;6995;52.618;13.488;2022-11-15T05:45:43;66.40;;;52.07;;
13849;SDS011;6995;52.618;13.488;2022-11-15T05:48:08;67.77;;;54.27;;
13849;SDS011;6995;52.618;13.488;2022-11-15T05:50:36;62.57;;;52.57;;
13849;SDS011;6995;52.618;13.488;2022-11-15T05:53:03;58.50;;;49.50;;
13849;SDS011;6995;52.618;13.488;2022-11-15T05:55:30;62.23;;;52.77;;
13849;SDS011;6995;52.618;13.488;2022-11-15T05:57:57;61.93;;;50.87;;
13849;SDS011;6995;52.618;13.488;2022-11-15T06:00:22;65.37;;;51.57;;
13849;SDS011;6995;52.618;13.488;2022-11-15T06:02:48;62.50;;;51.70;;
13849;SDS011;6995;52.618;13.488;2022-11-15T06:05:14;69.33;;;53.97;;
13849;SDS011;6995;52.618;13.488;2022-11-15T06:07:40;69.67;;;52.47;;
13849;SDS011;6995;52.618;13.488;2022-11-15T06:10:06;71.57;;;54.03;;
13849;SDS011;6995;52.618;13.488;2022-11-15T06:16:09;60.10;;;49.33;;
13849;SDS011;6995;52.618;13.488;2022-11-15T06:18:35;68.43;;;51.17;;
13849;SDS011;6995;52.618;13.488;2022-11-15T06:21:02;67.67;;;51.50;;
13849;SDS011;6995;52.618;13.488;2022-11-15T06:23:30;63.83;;;49.93;;
13849;SDS011;6995;52.618;13.488;2022-11-15T06:25:58;66.17;;;52.00;;
13849;SDS011;6995;52.618;13.488;2022-11-15T06:28:24;59.87;;;50.63;;
13849;SDS011;6995;52.618;13.488;2022-11-15T06:30:52;61.53;;;51.83;;
13849;SDS011;6995;52.618;13.488;2022-11-15T06:33:18;64.97;;;53.07;;
13849;SDS011;6995;52.618;13.488;2022-11-15T06:35:44;62.70;;;55.13;;
13849;SDS011;6995;52.618;13.488;2022-11-15T06:38:10;68.10;;;51.60;;
13849;SDS011;6995;52.618;13.488;2022-11-15T06:40:36;65.93;;;51.13;;
13849;SDS011;6995;52.618;13.488;2022-11-15T06:43:03;67.80;;;49.60;;
13849;SDS011;6995;52.618;13.488;2022-11-15T06:45:29;67.40;;;51.53;;
13849;SDS011;6995;52.618;13.488;2022-11-15T06:47:55;63.37;;;51.37;;
13849;SDS011;6995;52.618;13.488;2022-11-15T06:50:21;64.90;;;53.50;;
13849;SDS011;6995;52.618;13.488;2022-11-15T06:52:47;62.10;;;49.87;;
13849;SDS011;6995;52.618;13.488;2022-11-15T06:55:13;62.27;;;50.37;;
13849;SDS011;6995;52.618;13.488;2022-11-15T06:58:00;66.53;;;49.90;;
13849;SDS011;6995;52.618;13.488;2022-11-15T07:00:25;58.90;;;52.47;;
13849;SDS011;6995;52.618;13.488;2022-11-15T07:02:50;56.67;;;49.87;;
13849;SDS011;6995;52.618;13.488;2022-11-15T07:05:16;60.57;;;49.07;;
13849;SDS011;6995;52.618;13.488;2022-11-15T07:07:42;60.77;;;49.57;;
13849;SDS011;6995;52.618;13.488;2022-11-15T07:10:08;54.70;;;48.20;;
13849;SDS011;6995;52.618;13.488;2022-11-15T07:12:34;62.63;;;49.27;;
13849;SDS011;6995;52.618;13.488;2022-11-15T07:15:00;57.93;;;47.97;;
13849;SDS011;6995;52.618;13.488;2022-11-15T07:17:26;61.93;;;49.87;;
13849;SDS011;6995;52.618;13.488;2022-11-15T07:19:51;59.03;;;50.03;;
13849;SDS011;6995;52.618;13.488;2022-11-15T07:22:17;60.67;;;50.87;;
13849;SDS011;6995;52.618;13.488;2022-11-15T07:24:43;58.30;;;51.87;;
13849;SDS011;6995;52.618;13.488;2022-11-15T07:27:08;57.00;;;50.93;;
13849;SDS011;6995;52.618;13.488;2022-11-15T07:29:34;55.23;;;49.00;;
13849;SDS011;6995;52.618;13.488;2022-11-15T07:31:59;56.00;;;48.77;;
13849;SDS011;6995;52.618;13.488;2022-11-15T07:34:25;60.67;;;54.10;;
13849;SDS011;6995;52.618;13.488;2022-11-15T07:36:51;62.27;;;50.10;;
13849;SDS011;6995;52.618;13.488;2022-11-15T07:39:16;56.70;;;49.93;;
13849;SDS011;6995;52.618;13.488;2022-11-15T07:41:42;59.13;;;52.70;;
13849;SDS011;6995;52.618;13.488;2022-11-15T07:44:08;61.50;;;53.67;;
13849;SDS011;6995;52.618;13.488;2022-11-15T07:46:34;61.27;;;54.67;;
13849;SDS011;6995;52.618;13.488;2022-11-15T07:48:59;63.17;;;56.70;;
13849;SDS011;6995;52.618;13.488;2022-11-15T07:51:25;60.90;;;54.53;;
13849;SDS011;6995;52.618;13.488;2022-11-15T07:53:51;61.20;;;55.07;;
13849;SDS011;6995;52.618;13.488;2022-11-15T07:56:17;57.00;;;51.33;;
13849;SDS011;6995;52.618;13.488;2022-11-15T07:58:42;56.50;;;50.77;;
13849;SDS011;6995;52.618;13.488;2022-11-15T08:01:10;58.10;;;50.57;;
13849;SDS011;6995;52.618;13.488;2022-11-15T08:03:37;58.10;;;49.90;;
13849;SDS011;6995;52.618;13.488;2022-11-15T08:06:03;55.37;;;49.27;;
13849;SDS011;6995;52.618;13.488;2022-11-15T08:08:29;55.70;;;49.70;;
13849;SDS011;6995;52.618;13.488;2022-11-15T08:10:54;57.17;;;50.97;;
13849;SDS011;6995;52.618;13.488;2022-11-15T08:13:23;55.67;;;49.93;;
13849;SDS011;6995;52.618;13.488;2022-11-15T08:15:48;56.20;;;50.10;;
13849;SDS011;6995;52.618;13.488;2022-11-15T08:18:14;56.43;;;50.53;;
13849;SDS011;6995;52.618;13.488;2022-11-15T08:20:41;57.10;;;51.03;;
13849;SDS011;6995;52.618;13.488;2022-11-15T08:23:08;57.53;;;51.27;;
13849;SDS011;6995;52.618;13.488;2022-11-15T08:25:36;57.97;;;51.67;;
13849;SDS011;6995;52.618;13.488;2022-11-15T08:28:03;53.77;;;48.23;;
13849;SDS011;6995;52.618;13.488;2022-11-15T08:30:30;55.97;;;50.03;;
13849;SDS011;6995;52.618;13.488;2022-11-15T08:33:01;58.07;;;51.97;;
13849;SDS011;6995;52.618;13.488;2022-11-15T08:35:27;56.97;;;51.27;;
13849;SDS011;6995;52.618;13.488;2022-11-15T08:37:53;57.13;;;51.57;;
13849;SDS011;6995;52.618;13.488;2022-11-15T08:40:19;55.20;;;49.50;;
13849;SDS011;6995;52.618;13.488;2022-11-15T08:42:46;58.13;;;52.00;;
13849;SDS011;6995;52.618;13.488;2022-11-15T08:45:12;56.37;;;48.63;;
13849;SDS011;6995;52.618;13.488;2022-11-15T08:47:38;54.80;;;48.87;;
13849;SDS011;6995;52.618;13.488;2022-11-15T08:50:03;58.00;;;51.80;;
13849;SDS011;6995;52.618;13.488;2022-11-15T08:52:30;55.17;;;49.37;;
13849;SDS011;6995;52.618;13.488;2022-11-15T08:54:56;56.20;;;50.63;;
13849;SDS011;6995;52.618;13.488;2022-11-15T08:57:22;55.43;;;49.77;;
13849;SDS011;6995;52.618;13.488;2022-11-15T08:59:48;60.63;;;54.67;;
13849;SDS011;6995;52.618;13.488;2022-11-15T09:02:14;59.60;;;53.93;;
13849;SDS011;6995;52.618;13.488;2022-11-15T09:04:40;59.30;;;53.50;;
13849;SDS011;6995;52.618;13.488;2022-11-15T09:07:07;53.50;;;48.27;;
13849;SDS011;6995;52.618;13.488;2022-11-15T09:09:34;55.47;;;49.57;;
13849;SDS011;6995;52.618;13.488;2022-11-15T09:11:59;54.57;;;49.10;;
13849;SDS011;6995;52.618;13.488;2022-11-15T09:14:25;54.10;;;48.53;;
13849;SDS011;6995;52.618;13.488;2022-11-15T09:16:51;55.57;;;50.03;;
13849;SDS011;6995;52.618;13.488;2022-11-15T09:19:16;55.93;;;50.17;;
13849;SDS011;6995;52.618;13.488;2022-11-15T09:21:42;56.77;;;51.13;;
13849;SDS011;6995;52.618;13.488;2022-11-15T09:24:08;55.37;;;49.70;;
13849;SDS011;6995;52.618;13.488;2022-11-15T09:26:33;60.57;;;54.57;;
13849;SDS011;6995;52.618;13.488;2022-11-15T09:28:59;60.97;;;55.07;;
13849;SDS011;6995;52.618;13.488;2022-11-15T09:31:26;59.87;;;54.37;;
13849;SDS011;6995;52.618;13.488;2022-11-15T09:33:52;59.50;;;53.87;;
13849;SDS011;6995;52.618;13.488;2022-11-15T09:36:18;55.27;;;49.47;;
13849;SDS011;6995;52.618;13.488;2022-11-15T09:38:43;55.53;;;49.67;;
13849;SDS011;6995;52.618;13.488;2022-11-15T09:43:45;55.00;;;49.43;;
13849;SDS011;6995;52.618;13.488;2022-11-15T09:46:20;54.77;;;49.07;;
13849;SDS011;6995;52.618;13.488;2022-11-15T09:48:51;54.40;;;49.30;;
13849;SDS011;6995;52.618;13.488;2022-11-15T09:56:29;50.60;;;45.90;;
13849;SDS011;6995;52.618;13.488;2022-11-15T10:04:50;47.90;;;43.03;;
13849;SDS011;6995;52.618;13.488;2022-11-15T10:07:23;43.67;;;40.00;;
13849;SDS011;6995;52.618;13.488;2022-11-15T10:12:54;44.20;;;40.00;;
13849;SDS011;6995;52.618;13.488;2022-11-15T10:15:20;47.77;;;43.43;;
13849;SDS011;6995;52.618;13.488;2022-11-15T10:23:14;46.00;;;41.80;;
13849;SDS011;6995;52.618;13.488;2022-11-15T10:25:43;45.47;;;41.23;;
13849;SDS011;6995;52.618;13.488;2022-11-15T10:28:42;47.50;;;43.30;;
13849;SDS011;6995;52.618;13.488;2022-11-15T10:31:01;45.67;;;41.57;;
13849;SDS011;6995;52.618;13.488;2022-11-15T10:41:14;47.17;;;42.80;;
13849;SDS011;6995;52.618;13.488;2022-11-15T10:46:47;47.17;;;43.03;;
13849;SDS011;6995;52.618;13.488;2022-11-15T10:49:15;46.77;;;42.77;;
13849;SDS011;6995;52.618;13.488;2022-11-15T10:57:28;48.47;;;44.07;;
13849;SDS011;6995;52.618;13.488;2022-11-15T10:59:59;45.73;;;41.47;;
13849;SDS011;6995;52.618;13.488;2022-11-15T11:04:59;47.93;;;43.00;;
13849;SDS011;6995;52.618;13.488;2022-11-15T11:07:27;47.40;;;43.13;;
13849;SDS011;6995;52.618;13.488;2022-11-15T11:12:38;46.67;;;42.13;;
13849;SDS011;6995;52.618;13.488;2022-11-15T11:15:09;45.30;;;41.10;;
13849;SDS011;6995;52.618;13.488;2022-11-15T11:20:37;46.30;;;41.93;;
13849;SDS011;6995;52.618;13.488;2022-11-15T11:39:16;44.00;;;40.07;;
13849;SDS011;6995;52.618;13.488;2022-11-15T11:42:08;43.17;;;39.33;;
13849;SDS011;6995;52.618;13.488;2022-11-15T11:47:39;43.87;;;39.70;;
13849;SDS011;6995;52.618;13.488;2022-11-15T11:53:03;43.80;;;40.10;;
13849;SDS011;6995;52.618;13.488;2022-11-15T11:55:42;43.93;;;40.13;;
13849;SDS011;6995;52.618;13.488;2022-11-15T11:58:34;45.27;;;41.07;;
13849;SDS011;6995;52.618;13.488;2022-11-15T12:06:37;45.13;;;41.43;;
13849;SDS011;6995;52.618;13.488;2022-11-15T12:11:55;47.27;;;43.10;;
13849;SDS011;6995;52.618;13.488;2022-11-15T12:17:12;43.47;;;39.67;;
13849;SDS011;6995;52.618;13.488;2022-11-15T12:19:39;44.83;;;41.13;;
13849;SDS011;6995;52.618;13.488;2022-11-15T12:24:41;44.77;;;41.03;;
13849;SDS011;6995;52.618;13.488;2022-11-15T12:29:39;44.77;;;41.07;;
13849;SDS011;6995;52.618;13.488;2022-11-15T12:32:48;42.93;;;39.43;;
13849;SDS011;6995;52.618;13.488;2022-11-15T12:35:05;41.97;;;38.40;;
13849;SDS011;6995;52.618;13.488;2022-11-15T12:38:04;39.97;;;36.60;;
13849;SDS011;6995;52.618;13.488;2022-11-15T12:40:35;44.27;;;40.63;;
13849;SDS011;6995;52.618;13.488;2022-11-15T12:45:39;40.20;;;36.88;;
13849;SDS011;6995;52.618;13.488;2022-11-15T12:53:32;38.08;;;34.72;;
13849;SDS011;6995;52.618;13.488;2022-11-15T12:59:38;42.50;;;39.10;;
13849;SDS011;6995;52.618;13.488;2022-11-15T13:06:50;53.45;;;49.63;;
13849;SDS011;6995;52.618;13.488;2022-11-15T13:12:02;46.17;;;42.97;;
13849;SDS011;6995;52.618;13.488;2022-11-15T13:20:31;49.97;;;46.78;;
13849;SDS011;6995;52.618;13.488;2022-11-15T13:22:53;47.72;;;44.08;;
13849;SDS011;6995;52.618;13.488;2022-11-15T13:30:58;46.28;;;43.08;;
13849;SDS011;6995;52.618;13.488;2022-11-15T13:38:39;43.72;;;40.65;;
13849;SDS011;6995;52.618;13.488;2022-11-15T13:41:45;39.53;;;36.72;;
13849;SDS011;6995;52.618;13.488;2022-11-15T13:43:59;38.15;;;35.38;;
13849;SDS011;6995;52.618;13.488;2022-11-15T13:46:26;40.13;;;37.00;;
13849;SDS011;6995;52.618;13.488;2022-11-15T13:48:56;40.97;;;38.00;;
13849;SDS011;6995;52.618;13.488;2022-11-15T13:54:33;39.13;;;36.20;;
13849;SDS011;6995;52.618;13.488;2022-11-15T13:56:44;38.35;;;35.55;;
13849;SDS011;6995;52.618;13.488;2022-11-15T13:59:15;41.50;;;38.65;;
13849;SDS011;6995;52.618;13.488;2022-11-15T14:01:51;43.55;;;40.25;;
13849;SDS011;6995;52.618;13.488;2022-11-15T14:04:19;41.72;;;38.78;;
13849;SDS011;6995;52.618;13.488;2022-11-15T14:06:51;39.88;;;36.83;;
13849;SDS011;6995;52.618;13.488;2022-11-15T14:12:00;42.85;;;39.65;;
13849;SDS011;6995;52.618;13.488;2022-11-15T14:14:27;43.33;;;40.13;;
13849;SDS011;6995;52.618;13.488;2022-11-15T14:16:58;45.67;;;42.13;;
13849;SDS011;6995;52.618;13.488;2022-11-15T14:27:32;40.08;;;36.80;;
13849;SDS011;6995;52.618;13.488;2022-11-15T14:29:59;42.65;;;38.78;;
13849;SDS011;6995;52.618;13.488;2022-11-15T14:32:26;42.80;;;39.25;;
13849;SDS011;6995;52.618;13.488;2022-11-15T14:34:58;40.60;;;37.33;;
13849;SDS011;6995;52.618;13.488;2022-11-15T14:37:26;37.33;;;34.13;;
13849;SDS011;6995;52.618;13.488;2022-11-15T14:39:53;42.13;;;38.53;;
13849;SDS011;6995;52.618;13.488;2022-11-15T14:42:20;39.87;;;36.50;;
13849;SDS011;6995;52.618;13.488;2022-11-15T14:44:47;41.13;;;37.53;;
13849;SDS011;6995;52.618;13.488;2022-11-15T14:47:13;42.73;;;38.83;;
13849;SDS011;6995;52.618;13.488;2022-11-15T14:49:39;39.83;;;36.30;;
13849;SDS011;6995;52.618;13.488;2022-11-15T14:54:50;42.73;;;39.03;;
13849;SDS011;6995;52.618;13.488;2022-11-15T14:57:15;42.20;;;38.53;;
13849;SDS011;6995;52.618;13.488;2022-11-15T14:59:41;41.43;;;37.97;;
13849;SDS011;6995;52.618;13.488;2022-11-15T15:02:28;40.17;;;36.83;;
13849;SDS011;6995;52.618;13.488;2022-11-15T15:04:53;42.07;;;38.80;;
13849;SDS011;6995;52.618;13.488;2022-11-15T15:07:19;41.90;;;38.33;;
13849;SDS011;6995;52.618;13.488;2022-11-15T15:09:45;47.00;;;42.90;;
13849;SDS011;6995;52.618;13.488;2022-11-15T15:14:41;43.33;;;39.50;;
13849;SDS011;6995;52.618;13.488;2022-11-15T15:17:09;41.30;;;37.70;;
13849;SDS011;6995;52.618;13.488;2022-11-15T15:19:35;48.27;;;44.40;;
13849;SDS011;6995;52.618;13.488;2022-11-15T15:22:01;44.23;;;40.20;;
13849;SDS011;6995;52.618;13.488;2022-11-15T15:24:27;49.53;;;45.17;;
13849;SDS011;6995;52.618;13.488;2022-11-15T15:26:52;46.20;;;42.20;;
13849;SDS011;6995;52.618;13.488;2022-11-15T15:29:18;43.43;;;39.77;;
13849;SDS011;6995;52.618;13.488;2022-11-15T15:31:44;46.37;;;42.57;;
13849;SDS011;6995;52.618;13.488;2022-11-15T15:34:09;46.37;;;42.20;;
13849;SDS011;6995;52.618;13.488;2022-11-15T15:36:35;45.80;;;41.67;;
13849;SDS011;6995;52.618;13.488;2022-11-15T15:39:01;47.97;;;43.83;;
13849;SDS011;6995;52.618;13.488;2022-11-15T15:41:27;45.30;;;41.40;;
13849;SDS011;6995;52.618;13.488;2022-11-15T15:43:53;44.53;;;40.83;;
13849;SDS011;6995;52.618;13.488;2022-11-15T15:46:18;42.57;;;39.17;;
13849;SDS011;6995;52.618;13.488;2022-11-15T15:48:45;46.23;;;42.53;;
13849;SDS011;6995;52.618;13.488;2022-11-15T15:51:12;48.30;;;44.20;;
13849;SDS011;6995;52.618;13.488;2022-11-15T15:53:38;47.40;;;43.23;;
13849;SDS011;6995;52.618;13.488;2022-11-15T15:56:04;49.80;;;45.33;;
13849;SDS011;6995;52.618;13.488;2022-11-15T15:58:32;42.27;;;38.77;;
13849;SDS011;6995;52.618;13.488;2022-11-15T16:00:58;45.57;;;41.67;;
13849;SDS011;6995;52.618;13.488;2022-11-15T16:03:24;42.93;;;39.33;;
13849;SDS011;6995;52.618;13.488;2022-11-15T16:05:50;43.73;;;40.13;;
13849;SDS011;6995;52.618;13.488;2022-11-15T16:08:17;40.87;;;37.50;;
13849;SDS011;6995;52.618;13.488;2022-11-15T16:10:47;46.00;;;42.10;;
13849;SDS011;6995;52.618;13.488;2022-11-15T16:13:13;44.87;;;41.10;;
13849;SDS011;6995;52.618;13.488;2022-11-15T16:15:39;46.60;;;42.80;;
13849;SDS011;6995;52.618;13.488;2022-11-15T16:18:04;49.07;;;45.10;;
13849;SDS011;6995;52.618;13.488;2022-11-15T16:23:08;53.50;;;48.87;;
13849;SDS011;6995;52.618;13.488;2022-11-15T16:28:16;49.83;;;45.70;;
13849;SDS011;6995;52.618;13.488;2022-11-15T16:30:45;47.43;;;43.43;;
13849;SDS011;6995;52.618;13.488;2022-11-15T16:33:11;45.97;;;41.87;;
13849;SDS011;6995;52.618;13.488;2022-11-15T16:35:37;50.20;;;45.80;;
13849;SDS011;6995;52.618;13.488;2022-11-15T16:38:02;48.73;;;44.43;;
13849;SDS011;6995;52.618;13.488;2022-11-15T16:40:29;53.80;;;48.93;;
13849;SDS011;6995;52.618;13.488;2022-11-15T16:42:56;52.23;;;47.63;;
13849;SDS011;6995;52.618;13.488;2022-11-15T16:45:24;55.63;;;50.53;;
13849;SDS011;6995;52.618;13.488;2022-11-15T16:47:53;50.53;;;45.60;;
13849;SDS011;6995;52.618;13.488;2022-11-15T16:50:23;53.33;;;48.70;;
13849;SDS011;6995;52.618;13.488;2022-11-15T16:52:51;51.67;;;46.97;;
13849;SDS011;6995;52.618;13.488;2022-11-15T16:55:21;53.67;;;48.67;;
13849;SDS011;6995;52.618;13.488;2022-11-15T16:57:48;57.10;;;51.47;;
13849;SDS011;6995;52.618;13.488;2022-11-15T17:00:15;59.53;;;53.90;;
13849;SDS011;6995;52.618;13.488;2022-11-15T17:02:43;58.83;;;53.37;;
13849;SDS011;6995;52.618;13.488;2022-11-15T17:05:09;55.60;;;50.27;;
13849;SDS011;6995;52.618;13.488;2022-11-15T17:07:36;55.80;;;50.27;;
13849;SDS011;6995;52.618;13.488;2022-11-15T17:10:02;63.67;;;57.33;;
13849;SDS011;6995;52.618;13.488;2022-11-15T17:12:28;66.30;;;59.67;;
13849;SDS011;6995;52.618;13.488;2022-11-15T17:14:55;62.97;;;56.47;;
13849;SDS011;6995;52.618;13.488;2022-11-15T17:17:21;60.93;;;54.77;;
13849;SDS011;6995;52.618;13.488;2022-11-15T17:19:47;62.93;;;56.37;;
13849;SDS011;6995;52.618;13.488;2022-11-15T17:22:13;62.83;;;56.20;;
13849;SDS011;6995;52.618;13.488;2022-11-15T17:24:38;68.03;;;59.93;;
13849;SDS011;6995;52.618;13.488;2022-11-15T17:27:04;65.23;;;58.17;;
13849;SDS011;6995;52.618;13.488;2022-11-15T17:29:30;69.80;;;58.37;;
13849;SDS011;6995;52.618;13.488;2022-11-15T17:31:55;67.10;;;59.80;;